CDT,Max TemperatureF,Mean TemperatureF,Min TemperatureF,Max Dew PointF,MeanDew PointF,Min DewpointF,Max Humidity, Mean Humidity, Min Humidity, Max Sea Level PressureIn, Mean Sea Level PressureIn, Min Sea Level PressureIn, Max VisibilityMiles, Mean VisibilityMiles, Min VisibilityMiles, Max Wind SpeedMPH, Mean Wind SpeedMPH, Max Gust SpeedMPH,PrecipitationIn, CloudCover, Events, WindDirDegrees
2013-3-1,26,12,-5,3,-6,-13,77,47,19,30.39,30.35,30.28,10,10,10,6,1,,0.00,0,,85
2013-3-2,28,5,-18,-2,-14,-24,78,45,12,30.31,30.21,30.10,10,10,10,7,1,,0.00,1,,333
2013-3-3,33,20,6,7,2,-8,85,46,23,30.10,30.03,29.97,10,10,10,9,4,,0.00,4,,134
2013-3-4,30,21,12,16,9,-8,86,60,32,30.08,30.02,29.97,10,9,2,12,5,20,0.00,5,Snow,112
2013-3-5,21,18,15,18,14,10,93,80,63,30.27,30.17,30.07,10,4,0,6,2,,0.24,8,Snow,42
2013-3-6,24,14,3,12,7,0,92,77,54,30.33,30.29,30.27,10,9,1,9,2,,0.00,5,Snow,305
2013-3-7,33,11,-11,16,4,-18,92,65,41,30.33,30.29,30.23,10,10,10,9,2,,0.00,1,,136
2013-3-8,28,22,15,21,18,12,93,80,74,30.26,30.18,30.07,10,9,7,9,4,,0.00,3,,164
2013-3-9,32,29,26,30,27,21,100,91,80,30.06,29.84,29.71,10,3,1,7,2,,0.28,5,Rain-Snow,107
2013-3-10,30,22,14,28,20,10,93,82,69,30.03,29.96,29.77,10,9,7,7,4,,0.00,6,Snow,321
2013-3-11,23,18,14,16,14,10,93,82,74,29.99,29.81,29.73,10,10,5,5,1,,0.00,8,Snow,349
2013-3-12,21,12,3,12,6,0,92,73,42,30.11,29.91,29.74,10,10,4,9,2,16,0.00,2,Snow,323
2013-3-13,30,13,-4,16,4,-9,92,64,34,30.25,30.19,30.11,10,10,10,8,2,,0.00,0,,306
2013-3-14,35,22,10,27,18,7,92,74,64,30.13,30.02,29.93,10,10,5,10,3,16,0.00,6,Snow,213
2013-3-15,28,18,8,23,6,-6,85,64,33,30.04,29.99,29.96,10,8,1,6,2,,0.00,6,Snow,11
2013-3-16,14,4,-5,3,-4,-11,85,70,48,30.17,30.05,30.00,10,9,3,20,4,29,0.00,4,Snow,307
2013-3-17,23,-1,-25,9,-10,-33,84,55,30,30.21,30.06,29.81,10,10,10,15,4,23,0.00,4,,148
2013-3-18,26,20,14,21,16,9,93,82,58,29.80,29.53,29.41,10,4,1,17,10,25,0.08,7,Snow,165
2013-3-19,17,12,6,9,3,-2,85,69,53,29.98,29.81,29.57,10,7,2,22,17,29,0.00,4,Snow,299
2013-3-20,17,8,0,3,-1,-6,85,66,45,30.06,30.02,29.98,10,10,5,14,10,21,0.00,5,,309
2013-3-21,28,16,3,9,4,0,85,67,40,30.05,30.02,29.98,10,10,7,8,1,,0.00,4,Snow,303
2013-3-22,30,14,-2,18,9,-8,92,75,55,30.05,30.03,30.01,10,10,10,8,1,,0.00,3,,303
2013-3-23,35,18,0,18,12,-6,93,69,44,30.11,30.08,30.04,10,10,10,6,1,,0.00,4,,298
2013-3-24,30,24,15,16,15,10,80,64,51,30.10,30.07,30.03,10,10,10,5,1,,0.00,7,,14
2013-3-25,37,22,6,18,12,1,93,66,36,30.17,30.12,30.07,10,10,10,12,2,16,0.00,2,,316
2013-3-26,37,29,21,21,18,16,86,63,44,30.23,30.21,30.17,10,10,10,8,1,,0.00,7,,297
2013-3-27,41,32,21,21,15,9,80,54,28,30.28,30.26,30.23,10,10,10,9,1,,0.00,5,,294
2013-3-28,44,26,8,18,11,7,92,54,21,30.28,30.25,30.20,10,10,10,8,1,,0.00,0,,295
2013-3-29,51,33,15,27,19,10,86,50,29,30.22,30.12,29.97,10,10,10,12,2,,0.00,2,,177
2013-3-30,48,39,30,32,25,16,93,59,29,29.97,29.81,29.73,10,9,2,15,4,18,0.00,2,,292
2013-3-31,33,26,19,25,14,3,86,60,40,29.99,29.80,29.66,10,9,2,18,10,29,0.00,7,Snow,310